Detalii statie AGRALMIXT [00001CED]

Toti senzorii

Date Temperatura solului [C]Precipitatii [mm]Voltaj baterie [mV]Leaf Wetness [Min]HC Air temperature [C]HC Relative humidity [%]Punctul de roua [C]
medieminmaxsumaultimatimpmedieminmaxmediemediemin
2020-06-02 06:00:00 0 6678 5.09 4.59 5.92 100 5 4.5
2020-06-02 07:00:00 0 6816 7.34 6.08 8.39 100 7.3 6
2020-06-02 08:00:00 0 7176 10.96 9.05 12.59 86.88 8.6 7.3
2020-06-02 09:00:00 0 7342 13.44 12.55 14.61 65.98 7 6
2020-06-02 10:00:00 0 7352 14.65 14.07 15.25 58.38 6.4 5.7
2020-06-02 11:00:00 0 7342 15.9 15 17.12 52.16 5.9 4.4
2020-06-02 12:00:00 0 7324 16.76 15.39 18.02 46.82 5 2.9
2020-06-02 13:00:00 0 7324 16.19 14.91 18.48 43.74 3.6 2.6
2020-06-02 14:00:00 0 7324 17.19 16.69 18.28 40.66 3.4 2.7
2020-06-02 15:00:00 0 7108 16.67 14.18 18.79 44.51 4.1 2.3
2020-06-02 16:00:00 0 7324 16.93 14.74 18.4 49.11 6 5.3
2020-06-02 17:00:00 0 7324 16.25 15.5 17.26 50.51 5.7 4.7
2020-06-02 18:00:00 0 7148 15.48 14.96 16.64 52.67 5.6 4.9
2020-06-02 19:00:00 0 7098 15.53 14.8 16.65 51.42 5.3 4.6
2020-06-02 20:00:00 0 6864 14.06 13.2 15.38 57.3 5.5 4.9
2020-06-02 21:00:00 0 6728 13 12.39 13.49 59.49 5.1 4.6
2020-06-02 22:00:00 0.6 6708 11.43 10.14 12.38 72.99 6.5 5.2
2020-06-02 23:00:00 0.4 6698 9.82 9.45 10.05 96.36 9.1 8.6
2020-06-03 00:00:00 0 6678 9.45 9.33 9.57 100 9.4 9.3
2020-06-03 01:00:00 0.4 6660 9.61 9.53 9.72 100 9.5 9.5
2020-06-03 02:00:00 0 6660 9.52 9.38 9.72 100 9.4 9.3
2020-06-03 03:00:00 0.2 6660 9.25 8.97 9.5 100 9.2 8.9
2020-06-03 04:00:00 0 6660 8.67 8.39 8.89 100 8.6 8.3
2020-06-03 05:00:00 0 6660 8.6 8.41 8.75 100 8.5 8.4
2020-06-03 06:00:00 0 6668 8.48 8.3 8.71 100 8.4 8.3
2020-06-03 07:00:00 0 6756 9.15 8.56 9.6 100 9.1 8.5
2020-06-03 08:00:00 0 7118 10.8 9.54 11.97 100 10.7 9.5
2020-06-03 09:00:00 0 7332 12.4 11.85 13.19 92.11 11 8.8
2020-06-03 10:00:00 0 7332 13.37 12.61 13.99 75.4 8.9 8.4
2020-06-03 11:00:00 0 7332 16.51 14.42 18.76 63.61 9.3 8.7
2020-06-03 12:00:00 0 7332 17.92 16.6 20.2 57.16 9.1 7.8
2020-06-03 13:00:00 0.2 7314 17.12 13.79 19.77 59.03 8.8 6.8
2020-06-03 14:00:00 0 7332 15.9 13.88 18.33 62.99 8.6 7.2
2020-06-03 15:00:00 0 7196 18.52 16.65 19.51 55.64 9.2 7.2
2020-06-03 16:00:00 0 7314 17.79 15.93 20.09 53.43 7.9 6.5
2020-06-03 17:00:00 0 7314 18.6 17.73 19.59 48.92 7.4 6.8
2020-06-03 18:00:00 1.2 6884 16.25 12.03 18.01 59.29 7.9 7.1
2020-06-03 19:00:00 8 6844 11.41 11.03 12.55 97.33 10.8 9.4
2020-06-03 20:00:00 0 6932 13.23 12.93 13.41 95.8 12.4 11.1
2020-06-03 21:00:00 0 6766 11.7 11.36 12.71 95.58 10.8 10.2
2020-06-03 22:00:00 0 6748 11.02 10.69 11.43 100 10.9 10.6
2020-06-03 23:00:00 0 6708 10.62 10.15 11 100 10.5 10.1
2020-06-04 00:00:00 0 6688 10.05 9.66 10.4 100 10 9.6
2020-06-04 01:00:00 0 6660 10.24 10.11 10.38 100 10.2 10.1
2020-06-04 02:00:00 0 6668 10.19 9.98 10.32 100 10.1 9.9
2020-06-04 03:00:00 0 6660 10.02 9.78 10.19 100 9.9 9.7
2020-06-04 04:00:00 0 6660 9.31 8.8 9.78 100 9.2 8.8
2020-06-04 05:00:00 0 6650 9.25 8.94 9.71 100 9.2 8.9